createdAt,value
2018-01-22T00:00:27.340Z,19.80
2018-01-22T00:02:55.700Z,19.53
2018-01-22T00:05:23.297Z,20.13
2018-01-22T00:07:50.899Z,18.97
2018-01-22T00:10:18.509Z,18.97
2018-01-22T00:12:46.160Z,19.50
2018-01-22T00:15:13.765Z,21.07
2018-01-22T00:17:42.145Z,17.10
2018-01-22T00:20:09.729Z,17.53
2018-01-22T00:22:37.366Z,20.70
2018-01-22T00:25:04.986Z,18.77
2018-01-22T00:27:32.641Z,17.80
2018-01-22T00:30:00.242Z,16.43
2018-01-22T00:32:27.869Z,17.50
2018-01-22T00:34:55.468Z,17.00
2018-01-22T00:37:23.857Z,18.50
2018-01-22T00:39:52.215Z,17.53
2018-01-22T00:42:19.867Z,18.73
2018-01-22T00:44:47.454Z,18.10
2018-01-22T00:47:15.091Z,16.97
2018-01-22T00:49:42.714Z,18.60
2018-01-22T00:52:11.083Z,18.80
2018-01-22T00:54:38.702Z,17.63
2018-01-22T00:57:06.310Z,18.47
2018-01-22T00:59:33.930Z,18.37
2018-01-22T01:02:01.545Z,19.10
2018-01-22T01:04:29.917Z,17.63
2018-01-22T01:06:57.509Z,17.80
2018-01-22T01:09:25.161Z,19.00
2018-01-22T01:11:52.769Z,20.70
2018-01-22T01:14:21.811Z,21.57
2018-01-22T01:16:49.421Z,18.47
2018-01-22T01:19:17.055Z,18.23
2018-01-22T01:21:44.697Z,18.87
2018-01-22T01:24:12.327Z,19.20
2018-01-22T01:26:39.934Z,19.10
2018-01-22T01:29:07.542Z,19.83
2018-01-22T01:31:36.017Z,20.27
2018-01-22T01:34:03.600Z,18.40
2018-01-22T01:36:31.233Z,20.27
2018-01-22T01:38:58.825Z,19.83
2018-01-22T01:41:26.447Z,20.00
2018-01-22T01:43:54.063Z,21.50
2018-01-22T01:46:22.447Z,21.00
2018-01-22T01:49:04.950Z,20.47
2018-01-22T01:51:32.594Z,20.00
2018-01-22T01:54:00.941Z,20.33
2018-01-22T01:56:28.563Z,20.20
2018-01-22T01:58:56.192Z,21.13
2018-01-22T02:01:23.810Z,17.50
2018-01-22T02:03:51.423Z,18.60
2018-01-22T02:06:19.056Z,20.20
2018-01-22T02:08:46.644Z,19.43
2018-01-22T02:11:14.283Z,19.73
2018-01-22T02:13:41.880Z,22.93
2018-01-22T02:16:10.275Z,21.43
2018-01-22T02:18:38.651Z,19.70
2018-01-22T02:21:06.276Z,22.10
2018-01-22T02:23:34.636Z,22.57
2018-01-22T02:26:02.302Z,19.60
2018-01-22T02:28:29.922Z,22.50
2018-01-22T02:30:57.549Z,18.60
2018-01-22T02:33:25.201Z,20.87
2018-01-22T02:35:52.826Z,20.80
2018-01-22T02:38:20.920Z,22.50
2018-01-22T02:40:48.507Z,22.20
2018-01-22T02:43:16.139Z,19.70
2018-01-22T02:45:43.730Z,20.90
2018-01-22T02:48:12.106Z,20.53
2018-01-22T02:50:39.692Z,20.37
2018-01-22T02:53:07.317Z,20.77
2018-01-22T02:55:35.678Z,21.73
2018-01-22T02:58:03.293Z,22.03
2018-01-22T03:00:30.906Z,20.63
2018-01-22T03:02:59.301Z,22.63
2018-01-22T03:05:27.710Z,23.70
2018-01-22T03:07:56.111Z,21.03
2018-01-22T03:10:24.483Z,20.73
2018-01-22T03:12:52.124Z,21.13
2018-01-22T03:15:20.436Z,20.50
2018-01-22T03:17:48.070Z,22.00
2018-01-22T03:20:15.672Z,24.20
2018-01-22T03:22:44.073Z,20.87
2018-01-22T03:25:12.433Z,22.90
2018-01-22T03:27:40.049Z,26.30
2018-01-22T03:30:07.701Z,21.77
2018-01-22T03:32:35.302Z,23.40
2018-01-22T03:35:02.940Z,23.40
2018-01-22T03:37:30.565Z,25.70
2018-01-22T03:39:58.193Z,24.87
2018-01-22T03:42:26.569Z,26.17
2018-01-22T03:44:54.205Z,25.60
2018-01-22T03:47:23.069Z,23.73
2018-01-22T03:49:51.304Z,24.47
2018-01-22T03:52:18.895Z,23.93
2018-01-22T03:54:46.498Z,25.20
2018-01-22T03:57:15.112Z,25.73
2018-01-22T03:59:42.759Z,25.60
2018-01-22T04:02:11.127Z,24.73
2018-01-22T04:04:38.737Z,22.73
2018-01-22T04:07:07.127Z,28.00
2018-01-22T04:09:34.733Z,27.23
2018-01-22T04:12:03.112Z,25.03
2018-01-22T04:14:30.705Z,24.67
2018-01-22T04:16:58.347Z,22.30
2018-01-22T04:19:25.953Z,26.60
2018-01-22T04:21:53.592Z,26.10
2018-01-22T04:24:22.260Z,24.67
2018-01-22T04:26:49.883Z,25.00
2018-01-22T04:29:17.472Z,26.97
2018-01-22T04:31:45.129Z,27.47
2018-01-22T04:34:12.721Z,23.10
2018-01-22T04:36:41.112Z,25.83
2018-01-22T04:39:08.720Z,25.87
2018-01-22T04:41:37.072Z,26.30
2018-01-22T04:44:04.710Z,24.43
2018-01-22T04:46:33.069Z,26.30
2018-01-22T04:49:00.713Z,26.67
2018-01-22T04:51:28.331Z,28.90
2018-01-22T04:53:55.971Z,27.53
2018-01-22T04:56:24.321Z,26.20
2018-01-22T04:58:52.218Z,26.80
2018-01-22T05:01:19.809Z,28.10
2018-01-22T05:03:47.460Z,27.17
2018-01-22T05:06:15.068Z,25.63
2018-01-22T05:08:42.690Z,27.73
2018-01-22T05:11:11.096Z,28.13
2018-01-22T05:13:39.503Z,25.60
2018-01-22T05:16:07.887Z,26.57
2018-01-22T05:18:35.507Z,25.77
2018-01-22T05:21:03.104Z,25.60
2018-01-22T05:23:30.760Z,26.07
2018-01-22T05:25:59.123Z,27.80
2018-01-22T05:28:26.702Z,25.60
2018-01-22T05:30:54.336Z,26.03
2018-01-22T05:33:22.897Z,27.10
2018-01-22T05:35:50.519Z,29.07
2018-01-22T05:38:18.883Z,29.77
2018-01-22T05:40:46.513Z,27.07
2018-01-22T05:43:14.883Z,25.00
2018-01-22T05:45:42.520Z,27.27
2018-01-22T05:48:10.109Z,25.70
2018-01-22T05:50:37.750Z,27.63
2018-01-22T05:53:05.373Z,27.33
2018-01-22T05:55:32.989Z,27.30
2018-01-22T05:58:00.596Z,28.70
2018-01-22T06:00:28.998Z,28.73
2018-01-22T06:02:56.589Z,27.80
2018-01-22T06:05:24.215Z,25.67
2018-01-22T06:07:53.147Z,26.27
2018-01-22T06:10:21.861Z,25.00
2018-01-22T06:12:49.659Z,27.70
2018-01-22T06:15:17.273Z,26.00
2018-01-22T06:17:44.914Z,28.53
2018-01-22T06:20:12.520Z,27.43
2018-01-22T06:22:40.143Z,25.37
2018-01-22T06:25:07.716Z,24.50
2018-01-22T06:27:35.329Z,25.13
2018-01-22T06:30:03.662Z,26.90
2018-01-22T06:32:31.279Z,25.37
2018-01-22T06:34:58.867Z,27.53
2018-01-22T06:37:26.471Z,25.50
2018-01-22T06:39:55.742Z,28.03
2018-01-22T06:42:23.402Z,23.47
2018-01-22T06:44:51.796Z,24.10
2018-01-22T06:47:20.737Z,23.70
2018-01-22T06:49:48.338Z,24.20
2018-01-22T06:52:16.019Z,25.27
2018-01-22T06:54:43.602Z,23.23
2018-01-22T06:57:11.216Z,26.30
2018-01-22T06:59:39.045Z,25.13
2018-01-22T07:02:07.399Z,23.60
2018-01-22T07:04:35.011Z,23.63
2018-01-22T07:07:02.592Z,23.83
2018-01-22T07:09:30.200Z,23.47
2018-01-22T07:11:58.548Z,23.33
2018-01-22T07:14:26.603Z,25.10
2018-01-22T07:16:55.049Z,24.07
2018-01-22T07:19:22.674Z,23.17
2018-01-22T07:21:51.326Z,25.63
2018-01-22T07:24:18.943Z,24.67
2018-01-22T07:26:46.572Z,24.13
2018-01-22T07:29:15.535Z,23.47
2018-01-22T07:31:43.252Z,22.70
2018-01-22T07:34:10.873Z,22.43
2018-01-22T07:36:38.520Z,23.13
2018-01-22T07:39:06.161Z,24.07
2018-01-22T07:41:33.785Z,21.40
2018-01-22T07:44:02.395Z,22.60
2018-01-22T07:46:30.006Z,22.50
2018-01-22T07:48:58.372Z,22.47
2018-01-22T07:51:25.972Z,22.30
2018-01-22T07:53:53.575Z,22.03
2018-01-22T07:56:22.723Z,20.10
2018-01-22T07:58:51.272Z,23.13
2018-01-22T08:01:18.935Z,21.93
2018-01-22T08:03:46.534Z,20.40
2018-01-22T08:06:14.148Z,20.60
2018-01-22T08:08:41.736Z,19.30
2018-01-22T08:11:09.357Z,21.63
2018-01-22T08:13:36.945Z,21.07
2018-01-22T08:16:04.680Z,22.20
2018-01-22T08:18:32.271Z,22.50
2018-01-22T08:20:59.919Z,21.50
2018-01-22T08:23:27.534Z,22.90
2018-01-22T08:25:55.182Z,22.50
2018-01-22T08:28:22.854Z,21.93
2018-01-22T08:30:51.932Z,21.47
2018-01-22T08:33:19.522Z,22.43
2018-01-22T08:35:47.130Z,20.50
2018-01-22T08:38:15.542Z,21.43
2018-01-22T08:40:43.194Z,21.83
2018-01-22T08:43:10.820Z,21.63
2018-01-22T08:45:38.425Z,21.17
2018-01-22T08:48:06.067Z,19.77
2018-01-22T08:50:34.486Z,20.87
2018-01-22T08:53:02.115Z,20.30
2018-01-22T08:55:29.730Z,20.03
2018-01-22T08:57:57.369Z,22.23
2018-01-22T09:00:24.977Z,21.13
2018-01-22T09:02:52.606Z,20.27
2018-01-22T09:05:20.974Z,20.67
2018-01-22T09:07:48.606Z,19.27
2018-01-22T09:10:16.195Z,20.97
2018-01-22T09:12:43.804Z,19.60
2018-01-22T09:15:11.435Z,19.97
2018-01-22T09:17:40.106Z,20.27
2018-01-22T09:20:07.744Z,20.77
2018-01-22T09:22:36.178Z,19.00
2018-01-22T09:25:03.825Z,20.23
2018-01-22T09:27:32.224Z,18.60
2018-01-22T09:29:59.850Z,19.43
2018-01-22T09:32:28.400Z,19.73
2018-01-22T09:34:56.042Z,19.93
2018-01-22T09:37:24.899Z,18.17
2018-01-22T09:39:53.458Z,17.37
2018-01-22T09:42:21.061Z,21.70
2018-01-22T09:44:48.720Z,18.90
2018-01-22T09:47:16.335Z,21.33
2018-01-22T09:49:43.919Z,19.00
2018-01-22T09:52:11.511Z,19.57
2018-01-22T09:54:39.517Z,17.07
2018-01-22T09:57:07.249Z,19.70
2018-01-22T09:59:35.593Z,17.60
2018-01-22T10:02:03.256Z,19.30
2018-01-22T10:04:30.851Z,19.60
2018-01-22T10:06:58.460Z,18.63
2018-01-22T10:09:27.323Z,19.70
2018-01-22T10:11:54.973Z,19.20
2018-01-22T10:14:22.589Z,19.50
2018-01-22T10:16:50.498Z,17.93
2018-01-22T10:19:18.156Z,17.13
2018-01-22T10:21:46.496Z,17.70
2018-01-22T10:24:14.162Z,17.07
2018-01-22T10:26:41.772Z,17.90
2018-01-22T10:29:09.368Z,17.33
2018-01-22T10:31:36.942Z,20.60
2018-01-22T10:34:04.543Z,19.00
2018-01-22T10:36:32.116Z,19.67
2018-01-22T10:38:59.720Z,17.60
2018-01-22T10:41:27.710Z,20.57
2018-01-22T10:43:55.393Z,18.13
2018-01-22T10:46:23.010Z,17.80
2018-01-22T10:48:51.370Z,17.97
2018-01-22T10:51:19.017Z,17.63
2018-01-22T10:53:46.624Z,17.43
2018-01-22T10:56:14.190Z,18.57
2018-01-22T10:58:41.758Z,16.63
2018-01-22T11:01:10.123Z,17.87
2018-01-22T11:03:37.707Z,16.70
2018-01-22T11:06:05.302Z,18.50
2018-01-22T11:08:32.939Z,17.13
2018-01-22T11:11:00.535Z,17.50
2018-01-22T11:13:28.111Z,17.40
2018-01-22T11:16:01.503Z,19.03
2018-01-22T11:18:29.893Z,22.90
2018-01-22T11:20:57.509Z,23.90
2018-01-22T11:23:25.090Z,28.23
2018-01-22T11:25:53.464Z,19.40
2018-01-22T11:28:22.156Z,19.77
2018-01-22T11:30:49.772Z,18.53
2018-01-22T11:33:18.108Z,18.03
2018-01-22T11:35:45.712Z,22.40
2018-01-22T11:38:13.285Z,22.47
2018-01-22T11:40:40.893Z,32.20
2018-01-22T11:43:08.490Z,23.60
2018-01-22T11:45:36.120Z,18.60
2018-01-22T11:48:03.713Z,17.93
2018-01-22T11:50:31.296Z,18.03
2018-01-22T11:52:58.907Z,16.60
2018-01-22T11:55:26.510Z,17.60
2018-01-22T11:58:08.568Z,14.60
2018-01-22T12:00:51.536Z,17.07
2018-01-22T12:03:19.135Z,17.87
2018-01-22T12:05:46.749Z,16.93
2018-01-22T12:08:14.388Z,16.90
2018-01-22T12:11:00.900Z,14.93
2018-01-22T12:13:28.853Z,16.30
2018-01-22T12:16:16.730Z,16.40
2018-01-22T12:18:45.546Z,16.23
2018-01-22T12:21:22.210Z,15.40
2018-01-22T12:23:49.818Z,16.10
2018-01-22T12:26:17.422Z,15.00
2018-01-22T12:28:45.027Z,17.20
2018-01-22T12:31:13.383Z,15.83
2018-01-22T12:36:40.012Z,14.10
2018-01-22T12:39:08.383Z,14.93
2018-01-22T12:41:48.423Z,14.73
2018-01-22T12:44:48.450Z,15.27
2018-01-22T12:50:39.701Z,14.70
2018-01-22T12:53:07.371Z,14.97
2018-01-22T12:55:34.971Z,14.20
2018-01-22T12:58:02.616Z,15.03
2018-01-22T13:00:30.209Z,13.10
2018-01-22T13:02:57.811Z,13.70
2018-01-22T13:05:25.424Z,15.37
2018-01-22T13:07:53.034Z,13.80
2018-01-22T13:10:20.678Z,15.13
2018-01-22T13:12:48.282Z,15.53
2018-01-22T13:15:15.882Z,14.50
2018-01-22T13:17:44.245Z,13.53
2018-01-22T13:20:11.871Z,14.10
2018-01-22T13:22:40.216Z,14.10
2018-01-22T13:25:07.820Z,13.93
2018-01-22T13:27:35.408Z,14.23
2018-01-22T13:30:03.009Z,14.60
2018-01-22T13:32:30.590Z,14.73
2018-01-22T13:34:58.230Z,13.10
2018-01-22T13:37:25.859Z,13.70
2018-01-22T13:39:53.475Z,13.63
2018-01-22T13:42:21.957Z,13.87
2018-01-22T13:44:49.557Z,14.07
2018-01-22T13:47:18.103Z,15.00
2018-01-22T13:49:45.671Z,14.60
2018-01-22T13:52:13.268Z,13.03
2018-01-22T13:54:41.079Z,15.07
2018-01-22T13:57:08.729Z,13.70
2018-01-22T13:59:36.347Z,14.63
2018-01-22T14:02:04.018Z,13.67
2018-01-22T14:04:31.634Z,14.07
2018-01-22T14:06:59.237Z,14.10
2018-01-22T14:09:27.811Z,13.43
2018-01-22T14:11:55.474Z,13.17
2018-01-22T14:14:23.046Z,14.10
2018-01-22T14:16:50.633Z,13.27
2018-01-22T14:19:19.042Z,14.93
2018-01-22T14:21:48.265Z,13.73
2018-01-22T14:24:15.883Z,13.27
2018-01-22T14:26:43.494Z,13.70
2018-01-22T14:29:13.070Z,14.20
2018-01-22T14:31:40.780Z,12.23
2018-01-22T14:34:08.415Z,12.37
2018-01-22T14:36:36.781Z,12.30
2018-01-22T14:39:04.449Z,12.50
2018-01-22T14:41:36.549Z,14.73
2018-01-22T14:44:04.375Z,12.50
2018-01-22T14:46:31.962Z,14.23
2018-01-22T14:49:00.350Z,10.87
2018-01-22T14:51:27.932Z,11.93
2018-01-22T14:53:55.529Z,13.77
2018-01-22T14:56:23.127Z,15.77
2018-01-22T14:58:53.596Z,11.83
2018-01-22T15:01:21.194Z,14.50
2018-01-22T15:03:48.814Z,12.13
2018-01-22T15:06:16.778Z,14.13
2018-01-22T15:08:44.435Z,12.10
2018-01-22T15:11:12.781Z,14.10
2018-01-22T15:13:41.862Z,11.07
2018-01-22T15:16:09.599Z,17.40
2018-01-22T15:18:38.213Z,15.87
2018-01-22T15:21:05.924Z,18.47
2018-01-22T15:23:34.282Z,19.37
2018-01-22T15:26:01.912Z,19.77
2018-01-22T15:28:29.543Z,19.60
2018-01-22T15:30:57.807Z,19.30
2018-01-22T15:33:25.518Z,14.60
2018-01-22T15:35:53.138Z,13.57
2018-01-22T15:38:20.735Z,13.37
2018-01-22T15:40:48.339Z,13.17
2018-01-22T15:43:15.958Z,15.77
2018-01-22T15:45:43.569Z,13.90
2018-01-22T15:48:11.163Z,12.90
2018-01-22T15:50:38.745Z,14.10
2018-01-22T15:53:06.376Z,13.70
2018-01-22T15:55:34.739Z,13.70
2018-01-22T15:58:02.365Z,15.37
2018-01-22T16:00:30.390Z,15.10
2018-01-22T16:02:58.035Z,15.93
2018-01-22T16:05:26.408Z,11.73
2018-01-22T16:07:54.014Z,15.07
2018-01-22T16:10:21.614Z,12.80
2018-01-22T16:12:50.091Z,14.73
2018-01-22T16:15:17.714Z,13.80
2018-01-22T16:17:45.397Z,13.30
2018-01-22T16:20:12.993Z,13.17
2018-01-22T16:22:40.646Z,11.60
2018-01-22T16:25:09.152Z,14.40
2018-01-22T16:27:36.791Z,13.23
2018-01-22T16:30:04.407Z,17.23
2018-01-22T16:32:31.993Z,14.37
2018-01-22T16:34:59.768Z,14.80
2018-01-22T16:37:27.365Z,14.07
2018-01-22T16:39:54.959Z,13.20
2018-01-22T16:42:22.616Z,12.47
2018-01-22T16:44:50.250Z,14.90
2018-01-22T16:47:24.010Z,14.77
2018-01-22T16:49:51.667Z,12.47
2018-01-22T16:52:20.127Z,14.27
2018-01-22T16:54:49.133Z,13.00
2018-01-22T16:57:17.962Z,13.00
2018-01-22T16:59:45.716Z,11.17
2018-01-22T17:02:13.362Z,13.23
2018-01-22T17:04:41.036Z,12.57
2018-01-22T17:07:08.678Z,12.70
2018-01-22T17:09:36.344Z,10.80
2018-01-22T17:12:05.733Z,12.70
2018-01-22T17:14:33.395Z,11.73
2018-01-22T17:17:01.054Z,12.93
2018-01-22T17:19:28.837Z,12.63
2018-01-22T17:21:57.274Z,12.67
2018-01-22T17:24:25.737Z,14.27
2018-01-22T17:26:53.408Z,13.03
2018-01-22T17:29:23.496Z,11.63
2018-01-22T17:31:51.126Z,11.90
2018-01-22T17:34:18.722Z,12.47
2018-01-22T17:36:47.112Z,12.87
2018-01-22T17:39:15.473Z,12.80
2018-01-22T17:41:43.092Z,13.70
2018-01-22T17:44:11.219Z,13.57
2018-01-22T17:46:39.840Z,12.40
2018-01-22T17:49:07.512Z,14.30
2018-01-22T17:51:38.522Z,11.13
2018-01-22T17:54:07.035Z,13.47
2018-01-22T17:56:34.710Z,13.73
2018-01-22T17:59:03.124Z,12.77
2018-01-22T18:01:30.744Z,13.50
2018-01-22T18:03:58.417Z,13.90
2018-01-22T18:06:26.105Z,13.17
2018-01-22T18:08:53.849Z,11.40
2018-01-22T18:11:21.466Z,13.13
2018-01-22T18:13:49.098Z,12.93
2018-01-22T18:16:17.513Z,12.53
2018-01-22T18:18:45.170Z,12.53
2018-01-22T18:21:12.823Z,14.27
2018-01-22T18:23:40.442Z,14.17
2018-01-22T18:26:08.864Z,12.77
2018-01-22T18:28:37.313Z,14.47
2018-01-22T18:31:05.056Z,13.90
2018-01-22T18:33:32.717Z,14.50
2018-01-22T18:36:00.376Z,13.20
2018-01-22T18:38:28.040Z,14.50
2018-01-22T18:40:55.715Z,16.93
2018-01-22T18:43:23.319Z,13.73
2018-01-22T18:45:50.986Z,14.40
2018-01-22T18:48:19.375Z,13.80
2018-01-22T18:50:47.776Z,14.10
2018-01-22T18:53:17.193Z,14.10
2018-01-22T18:55:45.570Z,14.30
2018-01-22T18:58:13.192Z,16.57
2018-01-22T19:00:41.660Z,14.40
2018-01-22T19:03:09.318Z,15.00
2018-01-22T19:05:38.130Z,15.00
2018-01-22T19:08:05.783Z,16.33
2018-01-22T19:10:34.167Z,14.57
2018-01-22T19:13:01.802Z,16.67
2018-01-22T19:15:29.431Z,15.03
2018-01-22T19:17:57.076Z,15.67
2018-01-22T19:20:24.685Z,16.93
2018-01-22T19:22:52.341Z,16.70
2018-01-22T19:25:20.398Z,15.10
2018-01-22T19:27:48.960Z,16.50
2018-01-22T19:30:18.032Z,16.30
2018-01-22T19:32:46.493Z,17.60
2018-01-22T19:35:14.134Z,15.17
2018-01-22T19:37:42.573Z,15.87
2018-01-22T19:40:10.339Z,17.03
2018-01-22T19:42:37.979Z,19.33
2018-01-22T19:45:05.697Z,16.50
2018-01-22T19:47:34.195Z,16.70
2018-01-22T19:50:02.609Z,16.60
2018-01-22T19:52:30.976Z,17.40
2018-01-22T19:54:58.629Z,15.47
2018-01-22T19:57:26.254Z,18.90
2018-01-22T19:59:53.940Z,18.57
2018-01-22T20:02:21.559Z,17.37
2018-01-22T20:04:50.045Z,16.00
2018-01-22T20:07:18.523Z,18.30
2018-01-22T20:09:46.199Z,16.60
2018-01-22T20:12:13.873Z,17.27
2018-01-22T20:14:41.492Z,17.00
2018-01-22T20:17:09.161Z,17.93
2018-01-22T20:19:36.787Z,16.17
2018-01-22T20:22:05.195Z,17.80
2018-01-22T20:24:33.567Z,17.20
2018-01-22T20:27:01.225Z,16.67
2018-01-22T20:29:28.900Z,18.40
2018-01-22T20:31:56.560Z,17.30
2018-01-22T20:34:24.942Z,18.77
2018-01-22T20:36:52.627Z,17.60
2018-01-22T20:39:20.260Z,18.03
2018-01-22T20:41:48.502Z,18.40
2018-01-22T20:44:16.548Z,18.63
2018-01-22T20:46:44.259Z,20.00
2018-01-22T20:49:11.910Z,20.60
2018-01-22T20:51:39.576Z,19.30
2018-01-22T20:54:07.251Z,19.90
2018-01-22T20:56:34.917Z,19.20
2018-01-22T20:59:02.617Z,19.33
2018-01-22T21:01:30.328Z,19.43
2018-01-22T21:03:58.052Z,19.20
2018-01-22T21:06:25.678Z,20.03
2018-01-22T21:08:53.342Z,21.17
2018-01-22T21:11:20.991Z,20.13
2018-01-22T21:13:49.425Z,18.47
2018-01-22T21:16:17.104Z,19.70
2018-01-22T21:18:44.875Z,20.60
2018-01-22T21:21:13.240Z,21.27
2018-01-22T21:23:40.926Z,22.10
2018-01-22T21:26:08.579Z,21.83
2018-01-22T21:28:36.193Z,24.90
2018-01-22T21:31:03.835Z,20.23
2018-01-22T21:33:31.495Z,21.07
2018-01-22T21:35:59.914Z,22.27
2018-01-22T21:38:27.539Z,23.80
2018-01-22T21:40:55.231Z,21.30
2018-01-22T21:43:22.889Z,22.80
2018-01-22T21:45:50.516Z,23.50
2018-01-22T21:48:18.599Z,24.43
2018-01-22T21:50:46.310Z,25.40
2018-01-22T21:53:15.834Z,24.30
2018-01-22T21:55:43.492Z,24.80
2018-01-22T21:58:11.128Z,23.43
2018-01-22T22:00:39.600Z,23.00
2018-01-22T22:03:07.239Z,22.43
2018-01-22T22:05:34.868Z,23.40
2018-01-22T22:08:02.473Z,22.40
2018-01-22T22:10:30.121Z,23.33
2018-01-22T22:12:57.754Z,20.10
2018-01-22T22:15:26.137Z,24.43
2018-01-22T22:17:53.769Z,22.07
2018-01-22T22:20:21.371Z,23.90
2018-01-22T22:22:49.031Z,21.63
2018-01-22T22:25:17.901Z,24.00
2018-01-22T22:27:45.557Z,24.20
2018-01-22T22:30:13.193Z,20.90
2018-01-22T22:32:40.829Z,24.13
2018-01-22T22:35:08.490Z,23.27
2018-01-22T22:37:36.138Z,21.13
2018-01-22T22:40:03.799Z,21.70
2018-01-22T22:42:31.416Z,22.67
2018-01-22T22:44:59.033Z,21.20
2018-01-22T22:47:26.697Z,20.53
2018-01-22T22:49:54.341Z,22.97
2018-01-22T22:52:22.019Z,23.30
2018-01-22T22:54:49.648Z,21.10
2018-01-22T22:57:17.692Z,21.30
2018-01-22T22:59:45.340Z,22.90
2018-01-22T23:02:13.752Z,22.40
2018-01-22T23:04:41.418Z,21.53
2018-01-22T23:07:09.083Z,21.93
2018-01-22T23:09:36.762Z,20.80
2018-01-22T23:12:04.381Z,23.97
2018-01-22T23:14:32.023Z,22.57
2018-01-22T23:16:59.672Z,22.43
2018-01-22T23:19:27.333Z,23.90
2018-01-22T23:21:54.978Z,22.90
2018-01-22T23:24:22.635Z,21.90
2018-01-22T23:26:51.020Z,21.73
2018-01-22T23:29:19.387Z,22.90
2018-01-22T23:31:49.041Z,21.50
2018-01-22T23:34:16.664Z,22.70
2018-01-22T23:36:44.293Z,24.03
2018-01-22T23:39:11.934Z,22.23
2018-01-22T23:41:39.586Z,22.90
2018-01-22T23:44:07.997Z,20.83
2018-01-22T23:46:36.423Z,23.33
2018-01-22T23:49:05.453Z,22.23
2018-01-22T23:51:33.126Z,23.17
2018-01-22T23:54:01.554Z,21.27
2018-01-22T23:56:29.271Z,23.33
2018-01-22T23:58:56.863Z,25.47
